sensor_id;sensor_type;location;lat;lon;timestamp;pressure;altitude;pressure_sealevel;temperature;humidity
39301;BME280;25019;42.626;23.380;2023-05-24T00:00:29;94216.59;;;11.32;100.00
39301;BME280;25019;42.626;23.380;2023-05-24T00:02:56;94227.50;;;11.35;100.00
39301;BME280;25019;42.626;23.380;2023-05-24T00:05:22;94241.84;;;11.34;100.00
39301;BME280;25019;42.626;23.380;2023-05-24T00:07:48;94223.69;;;11.21;100.00
39301;BME280;25019;42.626;23.380;2023-05-24T00:10:14;94237.53;;;11.23;100.00
39301;BME280;25019;42.626;23.380;2023-05-24T00:12:40;94242.28;;;11.16;100.00
39301;BME280;25019;42.626;23.380;2023-05-24T00:15:06;94248.91;;;11.13;100.00
39301;BME280;25019;42.626;23.380;2023-05-24T00:17:31;94245.44;;;11.13;100.00
39301;BME280;25019;42.626;23.380;2023-05-24T00:19:59;94031.41;;;9.76;100.00
39301;BME280;25019;42.626;23.380;2023-05-24T00:22:24;94195.03;;;10.85;100.00
39301;BME280;25019;42.626;23.380;2023-05-24T00:24:50;94226.50;;;11.04;100.00
39301;BME280;25019;42.626;23.380;2023-05-24T00:27:16;94137.09;;;10.44;100.00
39301;BME280;25019;42.626;23.380;2023-05-24T00:29:42;94108.22;;;10.26;100.00
39301;BME280;25019;42.626;23.380;2023-05-24T00:32:07;94155.78;;;10.60;100.00
39301;BME280;25019;42.626;23.380;2023-05-24T00:34:35;94225.16;;;11.01;100.00
39301;BME280;25019;42.626;23.380;2023-05-24T00:37:01;94242.00;;;11.12;100.00
39301;BME280;25019;42.626;23.380;2023-05-24T00:39:26;94221.97;;;10.99;100.00
39301;BME280;25019;42.626;23.380;2023-05-24T00:41:52;94222.75;;;11.00;100.00
39301;BME280;25019;42.626;23.380;2023-05-24T00:44:18;94146.63;;;10.40;100.00
39301;BME280;25019;42.626;23.380;2023-05-24T00:46:44;94166.59;;;10.48;100.00
39301;BME280;25019;42.626;23.380;2023-05-24T00:49:09;94221.59;;;10.85;100.00
39301;BME280;25019;42.626;23.380;2023-05-24T00:51:36;94237.28;;;10.87;100.00
39301;BME280;25019;42.626;23.380;2023-05-24T00:54:03;94235.34;;;10.77;100.00
39301;BME280;25019;42.626;23.380;2023-05-24T00:56:29;94168.72;;;10.24;100.00
39301;BME280;25019;42.626;23.380;2023-05-24T00:58:55;94210.91;;;10.47;100.00
39301;BME280;25019;42.626;23.380;2023-05-24T01:01:22;94240.00;;;10.64;100.00
39301;BME280;25019;42.626;23.380;2023-05-24T01:03:54;94215.97;;;10.49;100.00
39301;BME280;25019;42.626;23.380;2023-05-24T01:06:19;94226.06;;;10.47;100.00
39301;BME280;25019;42.626;23.380;2023-05-24T01:11:44;94232.97;;;10.48;100.00
39301;BME280;25019;42.626;23.380;2023-05-24T01:17:30;94228.91;;;10.40;100.00
39301;BME280;25019;42.626;23.380;2023-05-24T01:20:01;94234.28;;;10.45;100.00
39301;BME280;25019;42.626;23.380;2023-05-24T01:25:16;94235.06;;;10.46;100.00
39301;BME280;25019;42.626;23.380;2023-05-24T01:27:43;94244.09;;;10.45;100.00
39301;BME280;25019;42.626;23.380;2023-05-24T01:30:10;94245.63;;;10.41;100.00
39301;BME280;25019;42.626;23.380;2023-05-24T01:32:36;94132.28;;;9.59;100.00
39301;BME280;25019;42.626;23.380;2023-05-24T01:35:04;94153.84;;;9.68;100.00
39301;BME280;25019;42.626;23.380;2023-05-24T01:37:30;94257.78;;;10.37;100.00
39301;BME280;25019;42.626;23.380;2023-05-24T01:39:56;94238.28;;;10.26;100.00
39301;BME280;25019;42.626;23.380;2023-05-24T01:42:28;94255.31;;;10.30;100.00
39301;BME280;25019;42.626;23.380;2023-05-24T01:45:07;94154.78;;;9.56;100.00
39301;BME280;25019;42.626;23.380;2023-05-24T01:50:20;94254.97;;;10.21;100.00
39301;BME280;25019;42.626;23.380;2023-05-24T01:52:49;94134.44;;;9.40;100.00
39301;BME280;25019;42.626;23.380;2023-05-24T01:55:16;94222.66;;;10.02;100.00
39301;BME280;25019;42.626;23.380;2023-05-24T01:57:44;94234.50;;;10.16;100.00
39301;BME280;25019;42.626;23.380;2023-05-24T02:00:15;94127.41;;;9.51;100.00
39301;BME280;25019;42.626;23.380;2023-05-24T02:02:41;94243.34;;;10.27;100.00
39301;BME280;25019;42.626;23.380;2023-05-24T02:05:09;94251.00;;;10.24;100.00
39301;BME280;25019;42.626;23.380;2023-05-24T02:07:35;94157.50;;;9.62;100.00
39301;BME280;25019;42.626;23.380;2023-05-24T02:10:01;94243.44;;;10.10;100.00
39301;BME280;25019;42.626;23.380;2023-05-24T02:12:26;94240.66;;;10.00;100.00
39301;BME280;25019;42.626;23.380;2023-05-24T02:14:52;94234.38;;;9.84;100.00
39301;BME280;25019;42.626;23.380;2023-05-24T02:17:20;94138.56;;;9.08;100.00
39301;BME280;25019;42.626;23.380;2023-05-24T02:19:45;94243.09;;;9.79;100.00
39301;BME280;25019;42.626;23.380;2023-05-24T02:22:11;94233.22;;;9.74;100.00
39301;BME280;25019;42.626;23.380;2023-05-24T02:24:37;94234.31;;;9.79;100.00
39301;BME280;25019;42.626;23.380;2023-05-24T02:27:05;94226.88;;;9.76;100.00
39301;BME280;25019;42.626;23.380;2023-05-24T02:29:30;94086.22;;;8.76;100.00
39301;BME280;25019;42.626;23.380;2023-05-24T02:31:56;94211.03;;;9.58;100.00
39301;BME280;25019;42.626;23.380;2023-05-24T02:34:23;94228.09;;;9.68;100.00
39301;BME280;25019;42.626;23.380;2023-05-24T02:36:49;94235.47;;;9.66;100.00
39301;BME280;25019;42.626;23.380;2023-05-24T02:39:15;94198.59;;;9.42;100.00
39301;BME280;25019;42.626;23.380;2023-05-24T02:41:42;94231.78;;;9.67;100.00
39301;BME280;25019;42.626;23.380;2023-05-24T02:44:07;94211.50;;;9.55;100.00
39301;BME280;25019;42.626;23.380;2023-05-24T02:46:33;94009.28;;;8.27;100.00
39301;BME280;25019;42.626;23.380;2023-05-24T02:48:58;94211.88;;;9.64;100.00
39301;BME280;25019;42.626;23.380;2023-05-24T02:51:24;94217.97;;;9.65;100.00
39301;BME280;25019;42.626;23.380;2023-05-24T02:53:50;94230.31;;;9.76;100.00
39301;BME280;25019;42.626;23.380;2023-05-24T02:56:16;94191.84;;;9.51;100.00
39301;BME280;25019;42.626;23.380;2023-05-24T02:58:42;94210.84;;;9.65;100.00
39301;BME280;25019;42.626;23.380;2023-05-24T03:01:12;94117.06;;;9.05;100.00
39301;BME280;25019;42.626;23.380;2023-05-24T03:03:39;94124.56;;;9.13;100.00
39301;BME280;25019;42.626;23.380;2023-05-24T03:06:05;94228.34;;;9.88;100.00
39301;BME280;25019;42.626;23.380;2023-05-24T03:08:34;94228.66;;;9.92;100.00
39301;BME280;25019;42.626;23.380;2023-05-24T03:11:02;94217.19;;;9.86;100.00
39301;BME280;25019;42.626;23.380;2023-05-24T03:13:28;94218.03;;;9.92;100.00
39301;BME280;25019;42.626;23.380;2023-05-24T03:15:53;94109.00;;;9.17;100.00
39301;BME280;25019;42.626;23.380;2023-05-24T03:18:19;94116.75;;;9.23;100.00
39301;BME280;25019;42.626;23.380;2023-05-24T03:20:45;94228.34;;;9.88;100.00
39301;BME280;25019;42.626;23.380;2023-05-24T03:23:12;94220.13;;;9.90;100.00
39301;BME280;25019;42.626;23.380;2023-05-24T03:25:37;94254.84;;;10.11;100.00
39301;BME280;25019;42.626;23.380;2023-05-24T03:28:03;94233.03;;;10.03;100.00
39301;BME280;25019;42.626;23.380;2023-05-24T03:30:30;94236.94;;;10.23;100.00
39301;BME280;25019;42.626;23.380;2023-05-24T03:32:58;94260.25;;;10.71;100.00
39301;BME280;25019;42.626;23.380;2023-05-24T03:35:24;94260.28;;;11.08;100.00
39301;BME280;25019;42.626;23.380;2023-05-24T03:37:51;94253.06;;;11.42;100.00
39301;BME280;25019;42.626;23.380;2023-05-24T03:40:18;94260.75;;;11.86;100.00
39301;BME280;25019;42.626;23.380;2023-05-24T03:42:53;94219.88;;;12.03;100.00
39301;BME280;25019;42.626;23.380;2023-05-24T03:45:25;94261.00;;;12.74;97.00
39301;BME280;25019;42.626;23.380;2023-05-24T03:47:51;94265.84;;;13.13;93.13
39301;BME280;25019;42.626;23.380;2023-05-24T03:50:17;94252.50;;;13.50;89.76
39301;BME280;25019;42.626;23.380;2023-05-24T03:52:43;94261.44;;;13.95;85.75
39301;BME280;25019;42.626;23.380;2023-05-24T03:55:08;94222.09;;;14.21;83.74
39301;BME280;25019;42.626;23.380;2023-05-24T03:57:34;94255.66;;;14.88;80.69
39301;BME280;25019;42.626;23.380;2023-05-24T04:00:00;94188.09;;;14.77;77.86
39301;BME280;25019;42.626;23.380;2023-05-24T04:02:26;94172.34;;;15.05;75.08
39301;BME280;25019;42.626;23.380;2023-05-24T04:04:52;94258.19;;;15.92;72.83
39301;BME280;25019;42.626;23.380;2023-05-24T04:07:18;94170.44;;;15.60;70.86
39301;BME280;25019;42.626;23.380;2023-05-24T04:09:44;94241.84;;;16.37;69.42
39301;BME280;25019;42.626;23.380;2023-05-24T04:12:10;94270.78;;;16.78;68.30
39301;BME280;25019;42.626;23.380;2023-05-24T04:14:40;94180.06;;;16.67;66.56
39301;BME280;25019;42.626;23.380;2023-05-24T04:17:06;94269.69;;;17.65;65.00
39301;BME280;25019;42.626;23.380;2023-05-24T04:19:32;94253.00;;;17.96;63.57
39301;BME280;25019;42.626;23.380;2023-05-24T04:21:58;94193.91;;;17.96;61.88
39301;BME280;25019;42.626;23.380;2023-05-24T04:24:24;94271.06;;;18.74;60.32
39301;BME280;25019;42.626;23.380;2023-05-24T04:26:49;94243.69;;;18.95;59.27
39301;BME280;25019;42.626;23.380;2023-05-24T04:29:16;94251.78;;;19.40;57.96
39301;BME280;25019;42.626;23.380;2023-05-24T04:31:43;94246.47;;;19.81;56.06
39301;BME280;25019;42.626;23.380;2023-05-24T04:34:09;94244.84;;;20.11;55.16
39301;BME280;25019;42.626;23.380;2023-05-24T04:36:37;94260.03;;;20.56;54.17
39301;BME280;25019;42.626;23.380;2023-05-24T04:39:03;94194.97;;;20.49;52.63
39301;BME280;25019;42.626;23.380;2023-05-24T04:41:30;94264.06;;;21.29;52.16
39301;BME280;25019;42.626;23.380;2023-05-24T04:43:57;94273.22;;;21.72;50.83
39301;BME280;25019;42.626;23.380;2023-05-24T04:46:24;94261.72;;;21.84;49.94
39301;BME280;25019;42.626;23.380;2023-05-24T04:48:51;94270.19;;;21.82;49.37
39301;BME280;25019;42.626;23.380;2023-05-24T04:51:16;94289.22;;;21.86;48.92
39301;BME280;25019;42.626;23.380;2023-05-24T04:53:42;94289.84;;;21.92;49.37
39301;BME280;25019;42.626;23.380;2023-05-24T04:56:08;94298.84;;;22.13;48.69
39301;BME280;25019;42.626;23.380;2023-05-24T04:58:33;94183.59;;;21.61;47.99
39301;BME280;25019;42.626;23.380;2023-05-24T05:01:00;94282.91;;;22.21;48.04
39301;BME280;25019;42.626;23.380;2023-05-24T05:03:26;94289.91;;;22.22;48.31
39301;BME280;25019;42.626;23.380;2023-05-24T05:05:52;94274.94;;;21.85;49.27
39301;BME280;25019;42.626;23.380;2023-05-24T05:08:17;94214.31;;;21.39;48.66
39301;BME280;25019;42.626;23.380;2023-05-24T05:10:44;94296.97;;;22.05;48.70
39301;BME280;25019;42.626;23.380;2023-05-24T05:13:10;94235.22;;;21.77;48.37
39301;BME280;25019;42.626;23.380;2023-05-24T05:15:36;94297.94;;;22.48;47.85
39301;BME280;25019;42.626;23.380;2023-05-24T05:18:02;94199.28;;;22.15;47.09
39301;BME280;25019;42.626;23.380;2023-05-24T05:20:28;94205.28;;;22.51;47.21
39301;BME280;25019;42.626;23.380;2023-05-24T05:22:53;94267.97;;;23.26;46.24
39301;BME280;25019;42.626;23.380;2023-05-24T05:25:19;94188.59;;;22.70;46.98
39301;BME280;25019;42.626;23.380;2023-05-24T05:27:45;94286.56;;;23.48;46.42
39301;BME280;25019;42.626;23.380;2023-05-24T05:30:12;94233.34;;;23.10;45.58
39301;BME280;25019;42.626;23.380;2023-05-24T05:32:38;94286.63;;;23.73;44.97
39301;BME280;25019;42.626;23.380;2023-05-24T05:35:04;94291.97;;;23.82;44.13
39301;BME280;25019;42.626;23.380;2023-05-24T05:37:30;94178.25;;;23.27;43.75
39301;BME280;25019;42.626;23.380;2023-05-24T05:39:55;94207.66;;;23.62;44.08
39301;BME280;25019;42.626;23.380;2023-05-24T05:42:21;94237.19;;;23.89;44.01
39301;BME280;25019;42.626;23.380;2023-05-24T05:44:47;94217.78;;;23.99;43.30
39301;BME280;25019;42.626;23.380;2023-05-24T05:47:13;94305.44;;;24.74;42.75
39301;BME280;25019;42.626;23.380;2023-05-24T05:49:38;94296.47;;;24.98;42.41
39301;BME280;25019;42.626;23.380;2023-05-24T05:52:04;94292.63;;;25.28;40.42
39301;BME280;25019;42.626;23.380;2023-05-24T05:54:30;94292.38;;;25.46;40.62
39301;BME280;25019;42.626;23.380;2023-05-24T05:56:57;94278.09;;;25.49;40.06
39301;BME280;25019;42.626;23.380;2023-05-24T05:59:23;94232.78;;;25.12;39.42
39301;BME280;25019;42.626;23.380;2023-05-24T06:01:48;94283.31;;;25.41;39.83
39301;BME280;25019;42.626;23.380;2023-05-24T06:04:14;94273.75;;;25.19;39.73
39301;BME280;25019;42.626;23.380;2023-05-24T06:06:40;94279.84;;;25.28;39.70
39301;BME280;25019;42.626;23.380;2023-05-24T06:09:06;94294.72;;;25.60;38.89
39301;BME280;25019;42.626;23.380;2023-05-24T06:11:32;94305.09;;;25.86;38.41
39301;BME280;25019;42.626;23.380;2023-05-24T06:13:58;94157.13;;;24.98;38.21
39301;BME280;25019;42.626;23.380;2023-05-24T06:16:23;94303.81;;;26.12;37.67
39301;BME280;25019;42.626;23.380;2023-05-24T06:18:49;94299.63;;;25.41;39.24
39301;BME280;25019;42.626;23.380;2023-05-24T06:21:16;94294.03;;;25.63;39.44
39301;BME280;25019;42.626;23.380;2023-05-24T06:23:42;94301.53;;;25.53;39.19
39301;BME280;25019;42.626;23.380;2023-05-24T06:26:08;94214.81;;;24.79;39.93
39301;BME280;25019;42.626;23.380;2023-05-24T06:28:36;94302.66;;;25.40;40.49
39301;BME280;25019;42.626;23.380;2023-05-24T06:31:05;94299.25;;;25.15;40.71
39301;BME280;25019;42.626;23.380;2023-05-24T06:33:30;94314.78;;;25.02;41.89
39301;BME280;25019;42.626;23.380;2023-05-24T06:35:59;94297.28;;;24.87;41.97
39301;BME280;25019;42.626;23.380;2023-05-24T06:38:24;94226.72;;;24.12;41.96
39301;BME280;25019;42.626;23.380;2023-05-24T06:40:52;94208.31;;;23.59;41.78
39301;BME280;25019;42.626;23.380;2023-05-24T06:43:18;94213.56;;;23.31;42.75
39301;BME280;25019;42.626;23.380;2023-05-24T06:45:45;94172.41;;;22.62;43.25
39301;BME280;25019;42.626;23.380;2023-05-24T06:48:11;94291.97;;;22.85;44.70
39301;BME280;25019;42.626;23.380;2023-05-24T06:50:36;94238.19;;;22.23;45.29
39301;BME280;25019;42.626;23.380;2023-05-24T06:53:05;94295.63;;;22.59;46.08
39301;BME280;25019;42.626;23.380;2023-05-24T06:55:31;94271.66;;;22.40;47.18
39301;BME280;25019;42.626;23.380;2023-05-24T06:57:59;94279.47;;;22.41;48.03
39301;BME280;25019;42.626;23.380;2023-05-24T07:00:25;94270.53;;;22.11;49.51
39301;BME280;25019;42.626;23.380;2023-05-24T07:02:52;94281.00;;;21.82;48.45
39301;BME280;25019;42.626;23.380;2023-05-24T07:05:17;94277.06;;;21.45;50.09
39301;BME280;25019;42.626;23.380;2023-05-24T07:07:43;94294.69;;;21.51;50.38
39301;BME280;25019;42.626;23.380;2023-05-24T07:10:10;94292.81;;;21.43;51.74
39301;BME280;25019;42.626;23.380;2023-05-24T07:12:36;94208.94;;;20.69;52.20
39301;BME280;25019;42.626;23.380;2023-05-24T07:15:03;94214.50;;;20.72;52.14
39301;BME280;25019;42.626;23.380;2023-05-24T07:17:29;94296.59;;;21.33;52.94
39301;BME280;25019;42.626;23.380;2023-05-24T07:19:55;94205.63;;;20.89;52.83
39301;BME280;25019;42.626;23.380;2023-05-24T07:22:21;94316.94;;;21.65;51.90
39301;BME280;25019;42.626;23.380;2023-05-24T07:24:48;94305.16;;;21.79;52.50
39301;BME280;25019;42.626;23.380;2023-05-24T07:27:14;94203.97;;;21.41;51.62
39301;BME280;25019;42.626;23.380;2023-05-24T07:29:40;94280.19;;;21.82;51.59
39301;BME280;25019;42.626;23.380;2023-05-24T07:32:07;94305.16;;;21.88;51.38
39301;BME280;25019;42.626;23.380;2023-05-24T07:34:33;94223.19;;;21.48;50.76
39301;BME280;25019;42.626;23.380;2023-05-24T07:37:00;94309.16;;;22.20;51.18
39301;BME280;25019;42.626;23.380;2023-05-24T07:39:26;94309.97;;;22.12;50.76
39301;BME280;25019;42.626;23.380;2023-05-24T07:41:53;94236.03;;;21.60;50.54
39301;BME280;25019;42.626;23.380;2023-05-24T07:44:18;94173.38;;;21.19;51.14
39301;BME280;25019;42.626;23.380;2023-05-24T07:46:44;94278.13;;;21.88;52.48
39301;BME280;25019;42.626;23.380;2023-05-24T07:49:10;94300.38;;;21.84;53.14
39301;BME280;25019;42.626;23.380;2023-05-24T07:51:37;94301.50;;;21.75;53.26
39301;BME280;25019;42.626;23.380;2023-05-24T07:54:03;94244.84;;;21.31;53.31
39301;BME280;25019;42.626;23.380;2023-05-24T07:56:29;94210.84;;;21.12;53.68
39301;BME280;25019;42.626;23.380;2023-05-24T07:58:55;94247.53;;;21.31;55.47
39301;BME280;25019;42.626;23.380;2023-05-24T08:01:28;94223.72;;;21.15;53.72
39301;BME280;25019;42.626;23.380;2023-05-24T08:03:54;94281.53;;;21.40;52.50
39301;BME280;25019;42.626;23.380;2023-05-24T08:06:20;94282.47;;;21.36;52.86
39301;BME280;25019;42.626;23.380;2023-05-24T08:08:47;94303.44;;;21.39;53.51
39301;BME280;25019;42.626;23.380;2023-05-24T08:11:13;94292.81;;;21.07;51.91
39301;BME280;25019;42.626;23.380;2023-05-24T08:13:38;94216.38;;;20.45;51.08
39301;BME280;25019;42.626;23.380;2023-05-24T08:16:04;94213.19;;;20.43;52.18
39301;BME280;25019;42.626;23.380;2023-05-24T08:18:30;94174.75;;;20.11;53.16
39301;BME280;25019;42.626;23.380;2023-05-24T08:20:55;94292.16;;;20.84;53.54
39301;BME280;25019;42.626;23.380;2023-05-24T08:23:21;94257.19;;;20.70;54.04
39301;BME280;25019;42.626;23.380;2023-05-24T08:25:47;94260.56;;;20.76;52.70
39301;BME280;25019;42.626;23.380;2023-05-24T08:28:13;94181.31;;;20.28;52.79
39301;BME280;25019;42.626;23.380;2023-05-24T08:30:38;94284.34;;;20.74;46.92
39301;BME280;25019;42.626;23.380;2023-05-24T08:33:04;94209.19;;;20.14;45.86
39301;BME280;25019;42.626;23.380;2023-05-24T08:35:30;94290.38;;;20.71;48.84
39301;BME280;25019;42.626;23.380;2023-05-24T08:37:55;94294.66;;;20.72;47.62
39301;BME280;25019;42.626;23.380;2023-05-24T08:40:21;94282.78;;;20.82;48.11
39301;BME280;25019;42.626;23.380;2023-05-24T08:42:49;94295.50;;;20.99;49.30
39301;BME280;25019;42.626;23.380;2023-05-24T08:45:16;94217.97;;;20.64;48.78
39301;BME280;25019;42.626;23.380;2023-05-24T08:47:42;94271.50;;;21.06;47.99
39301;BME280;25019;42.626;23.380;2023-05-24T08:50:08;94301.84;;;21.29;48.09
39301;BME280;25019;42.626;23.380;2023-05-24T08:52:35;94278.66;;;21.28;47.79
39301;BME280;25019;42.626;23.380;2023-05-24T08:55:02;94304.72;;;21.50;46.62
39301;BME280;25019;42.626;23.380;2023-05-24T08:57:32;94294.38;;;21.52;45.77
39301;BME280;25019;42.626;23.380;2023-05-24T09:00:06;94231.97;;;21.10;45.70
39301;BME280;25019;42.626;23.380;2023-05-24T09:02:34;94285.31;;;21.57;44.32
39301;BME280;25019;42.626;23.380;2023-05-24T09:05:01;94286.91;;;21.67;44.09
39301;BME280;25019;42.626;23.380;2023-05-24T09:07:27;94288.47;;;21.85;44.42
39301;BME280;25019;42.626;23.380;2023-05-24T09:09:59;94297.13;;;22.00;44.18
39301;BME280;25019;42.626;23.380;2023-05-24T09:12:26;94228.56;;;21.66;43.86
39301;BME280;25019;42.626;23.380;2023-05-24T09:14:55;94292.16;;;22.11;42.09
39301;BME280;25019;42.626;23.380;2023-05-24T09:17:22;94284.44;;;22.00;43.42
39301;BME280;25019;42.626;23.380;2023-05-24T09:19:49;94296.31;;;22.08;41.49
39301;BME280;25019;42.626;23.380;2023-05-24T09:22:16;94287.69;;;22.15;41.78
39301;BME280;25019;42.626;23.380;2023-05-24T09:24:48;94226.84;;;21.61;41.51
39301;BME280;25019;42.626;23.380;2023-05-24T09:27:15;94215.69;;;21.54;41.58
39301;BME280;25019;42.626;23.380;2023-05-24T09:29:46;94285.25;;;21.92;41.77
39301;BME280;25019;42.626;23.380;2023-05-24T09:32:17;94266.00;;;21.94;42.15
39301;BME280;25019;42.626;23.380;2023-05-24T09:34:44;94291.47;;;22.23;43.01
39301;BME280;25019;42.626;23.380;2023-05-24T09:37:15;94286.72;;;22.20;40.77
39301;BME280;25019;42.626;23.380;2023-05-24T09:39:45;94286.59;;;22.16;41.85
39301;BME280;25019;42.626;23.380;2023-05-24T09:42:19;94217.25;;;21.81;40.08
39301;BME280;25019;42.626;23.380;2023-05-24T09:45:02;94279.88;;;22.22;40.36
39301;BME280;25019;42.626;23.380;2023-05-24T09:47:32;94265.44;;;22.18;39.68
39301;BME280;25019;42.626;23.380;2023-05-24T09:50:02;94278.38;;;22.34;39.63
39301;BME280;25019;42.626;23.380;2023-05-24T09:52:28;94249.66;;;22.20;38.99
39301;BME280;25019;42.626;23.380;2023-05-24T09:54:54;94272.31;;;22.37;38.28
39301;BME280;25019;42.626;23.380;2023-05-24T09:57:20;94266.88;;;22.54;38.70
39301;BME280;25019;42.626;23.380;2023-05-24T09:59:50;94248.28;;;22.44;38.54
39301;BME280;25019;42.626;23.380;2023-05-24T10:02:17;94268.50;;;22.68;38.72
39301;BME280;25019;42.626;23.380;2023-05-24T10:04:46;94196.13;;;22.35;38.67
39301;BME280;25019;42.626;23.380;2023-05-24T10:07:12;94265.44;;;22.99;39.22
39301;BME280;25019;42.626;23.380;2023-05-24T10:09:39;94162.97;;;22.17;39.04
39301;BME280;25019;42.626;23.380;2023-05-24T10:12:07;94202.16;;;22.40;38.41
39301;BME280;25019;42.626;23.380;2023-05-24T10:14:35;94255.38;;;22.79;37.99
39301;BME280;25019;42.626;23.380;2023-05-24T10:17:05;94261.06;;;22.86;38.68
39301;BME280;25019;42.626;23.380;2023-05-24T10:19:35;94254.34;;;22.71;37.08
39301;BME280;25019;42.626;23.380;2023-05-24T10:22:05;94250.44;;;22.81;38.42
39301;BME280;25019;42.626;23.380;2023-05-24T10:24:38;94254.16;;;22.76;37.41
39301;BME280;25019;42.626;23.380;2023-05-24T10:27:12;94265.19;;;22.92;36.98
39301;BME280;25019;42.626;23.380;2023-05-24T10:32:14;94179.69;;;22.40;38.35
39301;BME280;25019;42.626;23.380;2023-05-24T10:34:41;94243.81;;;23.12;37.90
39301;BME280;25019;42.626;23.380;2023-05-24T10:37:08;94235.31;;;23.01;36.24
39301;BME280;25019;42.626;23.380;2023-05-24T10:39:34;94246.22;;;23.13;36.43
39301;BME280;25019;42.626;23.380;2023-05-24T10:42:04;94251.38;;;23.06;36.15
39301;BME280;25019;42.626;23.380;2023-05-24T10:44:31;94211.03;;;22.92;35.66
39301;BME280;25019;42.626;23.380;2023-05-24T10:47:07;94231.28;;;23.28;35.71
39301;BME280;25019;42.626;23.380;2023-05-24T10:49:34;94231.72;;;23.30;36.38
39301;BME280;25019;42.626;23.380;2023-05-24T10:52:10;94232.66;;;23.34;36.24
39301;BME280;25019;42.626;23.380;2023-05-24T10:54:37;94164.56;;;23.02;36.48
39301;BME280;25019;42.626;23.380;2023-05-24T10:57:03;94226.16;;;23.60;36.52
39301;BME280;25019;42.626;23.380;2023-05-24T10:59:37;94212.97;;;23.71;37.75
39301;BME280;25019;42.626;23.380;2023-05-24T11:02:12;94222.88;;;24.01;36.09
39301;BME280;25019;42.626;23.380;2023-05-24T11:04:41;94225.69;;;23.92;35.11
39301;BME280;25019;42.626;23.380;2023-05-24T11:07:12;94231.56;;;23.94;35.15
39301;BME280;25019;42.626;23.380;2023-05-24T11:09:39;94201.91;;;23.64;35.95
39301;BME280;25019;42.626;23.380;2023-05-24T11:12:17;94214.00;;;23.67;36.28
39301;BME280;25019;42.626;23.380;2023-05-24T11:14:50;94075.75;;;22.83;36.41
39301;BME280;25019;42.626;23.380;2023-05-24T11:17:19;94215.16;;;23.90;37.34
39301;BME280;25019;42.626;23.380;2023-05-24T11:19:53;94214.41;;;24.02;35.80
39301;BME280;25019;42.626;23.380;2023-05-24T11:22:22;94216.56;;;24.09;37.63
39301;BME280;25019;42.626;23.380;2023-05-24T11:24:48;94191.81;;;24.11;38.05
39301;BME280;25019;42.626;23.380;2023-05-24T11:27:14;94151.00;;;23.82;38.79
39301;BME280;25019;42.626;23.380;2023-05-24T11:29:42;94205.47;;;24.27;37.53
39301;BME280;25019;42.626;23.380;2023-05-24T11:32:09;94215.06;;;24.36;36.55
39301;BME280;25019;42.626;23.380;2023-05-24T11:34:38;94182.97;;;24.26;35.82
39301;BME280;25019;42.626;23.380;2023-05-24T11:37:04;94106.03;;;23.69;36.78
39301;BME280;25019;42.626;23.380;2023-05-24T11:39:35;94196.97;;;24.28;35.16
39301;BME280;25019;42.626;23.380;2023-05-24T11:42:05;94192.22;;;24.37;35.78
39301;BME280;25019;42.626;23.380;2023-05-24T11:44:32;94201.81;;;24.47;36.23
39301;BME280;25019;42.626;23.380;2023-05-24T11:47:02;94067.38;;;23.59;36.39
39301;BME280;25019;42.626;23.380;2023-05-24T11:49:28;94180.47;;;24.33;35.38
39301;BME280;25019;42.626;23.380;2023-05-24T11:51:55;94114.81;;;23.90;36.42
39301;BME280;25019;42.626;23.380;2023-05-24T11:54:22;94186.66;;;24.46;34.97
39301;BME280;25019;42.626;23.380;2023-05-24T11:56:48;94132.22;;;24.27;35.29
39301;BME280;25019;42.626;23.380;2023-05-24T11:59:16;94186.16;;;24.81;35.54
39301;BME280;25019;42.626;23.380;2023-05-24T12:01:42;94174.03;;;24.91;35.71
39301;BME280;25019;42.626;23.380;2023-05-24T12:04:08;94179.66;;;24.98;34.33
39301;BME280;25019;42.626;23.380;2023-05-24T12:06:37;94171.31;;;24.91;34.53
39301;BME280;25019;42.626;23.380;2023-05-24T12:09:03;94179.25;;;25.12;35.40
39301;BME280;25019;42.626;23.380;2023-05-24T12:11:33;94180.56;;;25.03;34.35
39301;BME280;25019;42.626;23.380;2023-05-24T12:13:59;94118.59;;;24.51;33.72
39301;BME280;25019;42.626;23.380;2023-05-24T12:16:25;94170.78;;;24.86;33.43
39301;BME280;25019;42.626;23.380;2023-05-24T12:18:51;94176.03;;;24.53;34.41
39301;BME280;25019;42.626;23.380;2023-05-24T12:21:17;94166.09;;;24.45;33.64
39301;BME280;25019;42.626;23.380;2023-05-24T12:23:46;94163.59;;;24.52;33.50
39301;BME280;25019;42.626;23.380;2023-05-24T12:26:12;94114.13;;;24.31;33.25
39301;BME280;25019;42.626;23.380;2023-05-24T12:28:39;94089.47;;;24.36;33.15
39301;BME280;25019;42.626;23.380;2023-05-24T12:31:05;94153.72;;;25.01;32.90
39301;BME280;25019;42.626;23.380;2023-05-24T12:33:32;94093.03;;;24.52;34.91
39301;BME280;25019;42.626;23.380;2023-05-24T12:35:58;94070.56;;;24.39;35.28
39301;BME280;25019;42.626;23.380;2023-05-24T12:38:24;94097.41;;;24.57;34.57
39301;BME280;25019;42.626;23.380;2023-05-24T12:40:53;94151.09;;;24.76;34.67
39301;BME280;25019;42.626;23.380;2023-05-24T12:43:20;94144.25;;;24.54;34.61
39301;BME280;25019;42.626;23.380;2023-05-24T12:45:46;94128.66;;;24.51;34.96
39301;BME280;25019;42.626;23.380;2023-05-24T12:48:12;94143.00;;;24.64;34.72
39301;BME280;25019;42.626;23.380;2023-05-24T12:50:38;94093.19;;;24.31;33.78
39301;BME280;25019;42.626;23.380;2023-05-24T12:53:04;94155.31;;;24.61;34.48
39301;BME280;25019;42.626;23.380;2023-05-24T12:55:31;94117.97;;;24.30;33.73
39301;BME280;25019;42.626;23.380;2023-05-24T12:57:57;94136.81;;;24.51;33.43
39301;BME280;25019;42.626;23.380;2023-05-24T13:00:24;94146.47;;;24.64;33.16